sensor_id;sensor_type;location;lat;lon;timestamp;temperature;humidity
24011;DHT22;12217;50.792;4.372;2023-06-10T00:01:47;24.90;91.30
24011;DHT22;12217;50.792;4.372;2023-06-10T00:04:16;24.80;91.50
24011;DHT22;12217;50.792;4.372;2023-06-10T00:06:45;24.90;91.50
24011;DHT22;12217;50.792;4.372;2023-06-10T00:09:13;25.00;91.60
24011;DHT22;12217;50.792;4.372;2023-06-10T00:11:40;24.90;91.70
24011;DHT22;12217;50.792;4.372;2023-06-10T00:14:06;24.90;92.00
24011;DHT22;12217;50.792;4.372;2023-06-10T00:16:31;24.90;92.00
24011;DHT22;12217;50.792;4.372;2023-06-10T00:18:58;24.80;92.10
24011;DHT22;12217;50.792;4.372;2023-06-10T00:21:31;24.80;92.30
24011;DHT22;12217;50.792;4.372;2023-06-10T00:24:06;24.70;92.60
24011;DHT22;12217;50.792;4.372;2023-06-10T00:26:32;24.70;92.50
24011;DHT22;12217;50.792;4.372;2023-06-10T00:28:59;24.70;92.80
24011;DHT22;12217;50.792;4.372;2023-06-10T00:31:25;24.60;93.00
24011;DHT22;12217;50.792;4.372;2023-06-10T00:33:54;24.50;93.10
24011;DHT22;12217;50.792;4.372;2023-06-10T00:36:20;24.50;93.20
24011;DHT22;12217;50.792;4.372;2023-06-10T00:38:45;24.40;93.50
24011;DHT22;12217;50.792;4.372;2023-06-10T00:41:11;24.30;93.60
24011;DHT22;12217;50.792;4.372;2023-06-10T00:43:36;24.30;93.90
24011;DHT22;12217;50.792;4.372;2023-06-10T00:46:02;24.30;94.20
24011;DHT22;12217;50.792;4.372;2023-06-10T00:48:28;24.30;94.20
24011;DHT22;12217;50.792;4.372;2023-06-10T00:50:54;24.30;94.10
24011;DHT22;12217;50.792;4.372;2023-06-10T00:53:20;24.30;94.20
24011;DHT22;12217;50.792;4.372;2023-06-10T00:55:46;24.30;94.30
24011;DHT22;12217;50.792;4.372;2023-06-10T00:58:12;24.20;94.50
24011;DHT22;12217;50.792;4.372;2023-06-10T01:00:38;24.20;94.50
24011;DHT22;12217;50.792;4.372;2023-06-10T01:03:04;24.20;94.80
24011;DHT22;12217;50.792;4.372;2023-06-10T01:05:37;24.10;94.90
24011;DHT22;12217;50.792;4.372;2023-06-10T01:10:42;24.10;95.30
24011;DHT22;12217;50.792;4.372;2023-06-10T01:13:12;24.10;95.10
24011;DHT22;12217;50.792;4.372;2023-06-10T01:15:39;24.00;95.20
24011;DHT22;12217;50.792;4.372;2023-06-10T01:18:09;24.00;95.20
24011;DHT22;12217;50.792;4.372;2023-06-10T01:20:36;24.00;95.40
24011;DHT22;12217;50.792;4.372;2023-06-10T01:23:06;24.00;95.70
24011;DHT22;12217;50.792;4.372;2023-06-10T01:25:33;24.00;95.40
24011;DHT22;12217;50.792;4.372;2023-06-10T01:28:27;23.90;95.50
24011;DHT22;12217;50.792;4.372;2023-06-10T01:31:19;23.90;95.60
24011;DHT22;12217;50.792;4.372;2023-06-10T01:33:52;23.80;95.90
24011;DHT22;12217;50.792;4.372;2023-06-10T01:36:19;23.80;96.00
24011;DHT22;12217;50.792;4.372;2023-06-10T01:38:47;23.80;96.10
24011;DHT22;12217;50.792;4.372;2023-06-10T01:41:14;23.80;96.30
24011;DHT22;12217;50.792;4.372;2023-06-10T01:43:43;23.80;96.80
24011;DHT22;12217;50.792;4.372;2023-06-10T01:46:09;23.80;96.60
24011;DHT22;12217;50.792;4.372;2023-06-10T01:48:35;23.80;96.20
24011;DHT22;12217;50.792;4.372;2023-06-10T01:51:00;23.80;96.50
24011;DHT22;12217;50.792;4.372;2023-06-10T01:53:26;23.70;96.60
24011;DHT22;12217;50.792;4.372;2023-06-10T01:55:51;23.70;96.70
24011;DHT22;12217;50.792;4.372;2023-06-10T01:58:17;23.70;96.90
24011;DHT22;12217;50.792;4.372;2023-06-10T02:00:43;23.70;96.80
24011;DHT22;12217;50.792;4.372;2023-06-10T02:03:08;23.70;96.90
24011;DHT22;12217;50.792;4.372;2023-06-10T02:05:34;23.60;97.20
24011;DHT22;12217;50.792;4.372;2023-06-10T02:08:00;23.50;97.40
24011;DHT22;12217;50.792;4.372;2023-06-10T02:10:26;23.50;97.70
24011;DHT22;12217;50.792;4.372;2023-06-10T02:12:52;23.50;97.70
24011;DHT22;12217;50.792;4.372;2023-06-10T02:15:17;23.50;97.70
24011;DHT22;12217;50.792;4.372;2023-06-10T02:17:43;23.50;97.80
24011;DHT22;12217;50.792;4.372;2023-06-10T02:20:10;23.60;97.60
24011;DHT22;12217;50.792;4.372;2023-06-10T02:22:37;23.50;97.90
24011;DHT22;12217;50.792;4.372;2023-06-10T02:25:03;23.50;98.00
24011;DHT22;12217;50.792;4.372;2023-06-10T02:27:29;23.50;97.90
24011;DHT22;12217;50.792;4.372;2023-06-10T02:29:56;23.50;98.00
24011;DHT22;12217;50.792;4.372;2023-06-10T02:32:22;23.50;98.50
24011;DHT22;12217;50.792;4.372;2023-06-10T02:34:48;23.40;98.70
24011;DHT22;12217;50.792;4.372;2023-06-10T02:37:14;23.30;99.00
24011;DHT22;12217;50.792;4.372;2023-06-10T02:39:41;23.30;99.20
24011;DHT22;12217;50.792;4.372;2023-06-10T02:42:07;23.30;99.40
24011;DHT22;12217;50.792;4.372;2023-06-10T02:44:32;23.30;99.40
24011;DHT22;12217;50.792;4.372;2023-06-10T02:46:58;23.30;99.60
24011;DHT22;12217;50.792;4.372;2023-06-10T02:49:24;23.20;99.90
24011;DHT22;12217;50.792;4.372;2023-06-10T02:51:52;23.20;99.90
24011;DHT22;12217;50.792;4.372;2023-06-10T02:54:19;23.20;99.90
24011;DHT22;12217;50.792;4.372;2023-06-10T02:56:45;23.20;99.90
24011;DHT22;12217;50.792;4.372;2023-06-10T02:59:11;23.10;99.90
24011;DHT22;12217;50.792;4.372;2023-06-10T03:01:37;23.10;99.90
24011;DHT22;12217;50.792;4.372;2023-06-10T03:04:04;23.10;99.90
24011;DHT22;12217;50.792;4.372;2023-06-10T03:06:30;23.10;99.90
24011;DHT22;12217;50.792;4.372;2023-06-10T03:08:59;23.00;99.90
24011;DHT22;12217;50.792;4.372;2023-06-10T03:11:24;23.00;99.90
24011;DHT22;12217;50.792;4.372;2023-06-10T03:13:51;22.90;99.90
24011;DHT22;12217;50.792;4.372;2023-06-10T03:16:17;23.00;99.90
24011;DHT22;12217;50.792;4.372;2023-06-10T03:18:44;23.00;99.90
24011;DHT22;12217;50.792;4.372;2023-06-10T03:21:10;22.90;99.90
24011;DHT22;12217;50.792;4.372;2023-06-10T03:23:35;22.90;99.90
24011;DHT22;12217;50.792;4.372;2023-06-10T03:26:02;22.80;99.90
24011;DHT22;12217;50.792;4.372;2023-06-10T03:28:28;22.80;99.90
24011;DHT22;12217;50.792;4.372;2023-06-10T03:30:53;22.80;99.90
24011;DHT22;12217;50.792;4.372;2023-06-10T03:33:19;22.80;99.90
24011;DHT22;12217;50.792;4.372;2023-06-10T03:35:45;22.70;99.90
24011;DHT22;12217;50.792;4.372;2023-06-10T03:38:11;22.70;99.90
24011;DHT22;12217;50.792;4.372;2023-06-10T03:40:37;22.70;99.90
24011;DHT22;12217;50.792;4.372;2023-06-10T03:43:02;22.60;99.90
24011;DHT22;12217;50.792;4.372;2023-06-10T03:45:28;22.70;99.90
24011;DHT22;12217;50.792;4.372;2023-06-10T03:47:53;22.70;99.90
24011;DHT22;12217;50.792;4.372;2023-06-10T03:50:19;22.60;99.90
24011;DHT22;12217;50.792;4.372;2023-06-10T03:52:45;22.70;99.90
24011;DHT22;12217;50.792;4.372;2023-06-10T03:55:12;22.60;99.90
24011;DHT22;12217;50.792;4.372;2023-06-10T03:57:39;22.60;99.90
24011;DHT22;12217;50.792;4.372;2023-06-10T04:00:05;22.70;99.90
24011;DHT22;12217;50.792;4.372;2023-06-10T04:02:35;22.70;99.90
24011;DHT22;12217;50.792;4.372;2023-06-10T04:05:02;22.60;99.90
24011;DHT22;12217;50.792;4.372;2023-06-10T04:07:27;22.70;99.90
24011;DHT22;12217;50.792;4.372;2023-06-10T04:09:53;22.70;99.90
24011;DHT22;12217;50.792;4.372;2023-06-10T04:12:19;22.60;99.90
24011;DHT22;12217;50.792;4.372;2023-06-10T04:14:44;22.60;99.90
24011;DHT22;12217;50.792;4.372;2023-06-10T04:17:10;22.60;99.90
24011;DHT22;12217;50.792;4.372;2023-06-10T04:19:36;22.60;99.90
24011;DHT22;12217;50.792;4.372;2023-06-10T04:22:02;22.70;99.90
24011;DHT22;12217;50.792;4.372;2023-06-10T04:24:29;22.60;99.90
24011;DHT22;12217;50.792;4.372;2023-06-10T04:26:54;22.60;99.90
24011;DHT22;12217;50.792;4.372;2023-06-10T04:29:20;22.60;99.90
24011;DHT22;12217;50.792;4.372;2023-06-10T04:31:45;22.60;99.90
24011;DHT22;12217;50.792;4.372;2023-06-10T04:34:12;22.70;99.90
24011;DHT22;12217;50.792;4.372;2023-06-10T04:36:38;22.60;99.90
24011;DHT22;12217;50.792;4.372;2023-06-10T04:39:03;22.60;99.90
24011;DHT22;12217;50.792;4.372;2023-06-10T04:41:31;22.60;99.90
24011;DHT22;12217;50.792;4.372;2023-06-10T04:43:56;22.60;99.90
24011;DHT22;12217;50.792;4.372;2023-06-10T04:46:23;22.60;99.90
24011;DHT22;12217;50.792;4.372;2023-06-10T04:48:49;22.60;99.90
24011;DHT22;12217;50.792;4.372;2023-06-10T04:51:15;22.60;99.90
24011;DHT22;12217;50.792;4.372;2023-06-10T04:53:42;22.60;99.90
24011;DHT22;12217;50.792;4.372;2023-06-10T04:56:07;22.60;99.90
24011;DHT22;12217;50.792;4.372;2023-06-10T04:58:33;22.60;99.90
24011;DHT22;12217;50.792;4.372;2023-06-10T05:00:59;22.60;99.90
24011;DHT22;12217;50.792;4.372;2023-06-10T05:03:25;22.70;99.90
24011;DHT22;12217;50.792;4.372;2023-06-10T05:05:51;22.70;99.90
24011;DHT22;12217;50.792;4.372;2023-06-10T05:08:16;22.70;99.90
24011;DHT22;12217;50.792;4.372;2023-06-10T05:10:42;22.70;99.90
24011;DHT22;12217;50.792;4.372;2023-06-10T05:13:08;22.80;99.90
24011;DHT22;12217;50.792;4.372;2023-06-10T05:15:33;22.90;99.90
24011;DHT22;12217;50.792;4.372;2023-06-10T05:17:59;22.90;99.90
24011;DHT22;12217;50.792;4.372;2023-06-10T05:20:25;22.90;99.90
24011;DHT22;12217;50.792;4.372;2023-06-10T05:22:51;22.90;99.90
24011;DHT22;12217;50.792;4.372;2023-06-10T05:25:17;22.90;99.90
24011;DHT22;12217;50.792;4.372;2023-06-10T05:27:43;23.00;99.90
24011;DHT22;12217;50.792;4.372;2023-06-10T05:30:10;23.10;99.90
24011;DHT22;12217;50.792;4.372;2023-06-10T05:32:36;23.10;99.90
24011;DHT22;12217;50.792;4.372;2023-06-10T05:35:01;23.10;99.90
24011;DHT22;12217;50.792;4.372;2023-06-10T05:37:29;23.20;99.90
24011;DHT22;12217;50.792;4.372;2023-06-10T05:39:54;23.30;99.90
24011;DHT22;12217;50.792;4.372;2023-06-10T05:42:20;23.40;99.90
24011;DHT22;12217;50.792;4.372;2023-06-10T05:44:46;23.40;99.90
24011;DHT22;12217;50.792;4.372;2023-06-10T05:47:11;23.40;99.90
24011;DHT22;12217;50.792;4.372;2023-06-10T05:49:37;23.50;99.90
24011;DHT22;12217;50.792;4.372;2023-06-10T05:52:02;23.60;99.90
24011;DHT22;12217;50.792;4.372;2023-06-10T05:54:28;23.60;99.90
24011;DHT22;12217;50.792;4.372;2023-06-10T05:56:54;23.70;99.90
24011;DHT22;12217;50.792;4.372;2023-06-10T05:59:20;23.80;99.90
24011;DHT22;12217;50.792;4.372;2023-06-10T06:01:45;23.70;99.90
24011;DHT22;12217;50.792;4.372;2023-06-10T06:04:11;23.70;99.90
24011;DHT22;12217;50.792;4.372;2023-06-10T06:06:38;23.70;99.90
24011;DHT22;12217;50.792;4.372;2023-06-10T06:09:04;23.70;99.90
24011;DHT22;12217;50.792;4.372;2023-06-10T06:11:29;23.70;99.90
24011;DHT22;12217;50.792;4.372;2023-06-10T06:13:55;23.80;99.90
24011;DHT22;12217;50.792;4.372;2023-06-10T06:16:21;23.80;99.90
24011;DHT22;12217;50.792;4.372;2023-06-10T06:18:47;23.90;99.90
24011;DHT22;12217;50.792;4.372;2023-06-10T06:21:12;24.00;99.90
24011;DHT22;12217;50.792;4.372;2023-06-10T06:23:38;24.10;99.90
24011;DHT22;12217;50.792;4.372;2023-06-10T06:26:03;24.10;99.90
24011;DHT22;12217;50.792;4.372;2023-06-10T06:28:29;24.30;99.90
24011;DHT22;12217;50.792;4.372;2023-06-10T06:30:56;24.40;99.90
24011;DHT22;12217;50.792;4.372;2023-06-10T06:33:22;24.50;99.90
24011;DHT22;12217;50.792;4.372;2023-06-10T06:35:47;24.60;99.90
24011;DHT22;12217;50.792;4.372;2023-06-10T06:38:13;24.80;99.90
24011;DHT22;12217;50.792;4.372;2023-06-10T06:40:39;25.00;99.90
24011;DHT22;12217;50.792;4.372;2023-06-10T06:43:04;25.10;99.90
24011;DHT22;12217;50.792;4.372;2023-06-10T06:45:30;25.10;99.90
24011;DHT22;12217;50.792;4.372;2023-06-10T06:47:55;25.10;99.90
24011;DHT22;12217;50.792;4.372;2023-06-10T06:50:21;25.10;99.90
24011;DHT22;12217;50.792;4.372;2023-06-10T06:52:47;25.10;99.90
24011;DHT22;12217;50.792;4.372;2023-06-10T06:55:12;25.20;99.90
24011;DHT22;12217;50.792;4.372;2023-06-10T06:57:38;25.30;99.90
24011;DHT22;12217;50.792;4.372;2023-06-10T07:00:04;25.30;99.90
24011;DHT22;12217;50.792;4.372;2023-06-10T07:02:30;25.30;99.90
24011;DHT22;12217;50.792;4.372;2023-06-10T07:04:57;25.40;99.90
24011;DHT22;12217;50.792;4.372;2023-06-10T07:07:24;25.40;99.90
24011;DHT22;12217;50.792;4.372;2023-06-10T07:09:50;25.50;99.90
24011;DHT22;12217;50.792;4.372;2023-06-10T07:12:15;25.40;99.90
24011;DHT22;12217;50.792;4.372;2023-06-10T07:14:41;25.50;99.90
24011;DHT22;12217;50.792;4.372;2023-06-10T07:17:07;25.50;99.90
24011;DHT22;12217;50.792;4.372;2023-06-10T07:19:33;25.50;99.90
24011;DHT22;12217;50.792;4.372;2023-06-10T07:21:59;25.60;99.90
24011;DHT22;12217;50.792;4.372;2023-06-10T07:24:24;25.60;99.90
24011;DHT22;12217;50.792;4.372;2023-06-10T07:26:50;25.50;99.90
24011;DHT22;12217;50.792;4.372;2023-06-10T07:29:16;25.70;99.90
24011;DHT22;12217;50.792;4.372;2023-06-10T07:31:42;25.80;99.90
24011;DHT22;12217;50.792;4.372;2023-06-10T07:34:08;25.90;99.90
24011;DHT22;12217;50.792;4.372;2023-06-10T07:36:33;26.00;99.90
24011;DHT22;12217;50.792;4.372;2023-06-10T07:38:59;26.10;99.90
24011;DHT22;12217;50.792;4.372;2023-06-10T07:41:24;26.00;99.90
24011;DHT22;12217;50.792;4.372;2023-06-10T07:43:52;25.90;99.90
24011;DHT22;12217;50.792;4.372;2023-06-10T07:46:20;26.00;99.90
24011;DHT22;12217;50.792;4.372;2023-06-10T07:48:47;26.10;99.90
24011;DHT22;12217;50.792;4.372;2023-06-10T07:51:12;26.10;99.90
24011;DHT22;12217;50.792;4.372;2023-06-10T07:53:38;26.10;99.90
24011;DHT22;12217;50.792;4.372;2023-06-10T07:56:04;26.10;99.90
24011;DHT22;12217;50.792;4.372;2023-06-10T07:58:29;26.20;99.90
24011;DHT22;12217;50.792;4.372;2023-06-10T08:00:55;26.40;99.90
24011;DHT22;12217;50.792;4.372;2023-06-10T08:03:20;26.40;99.90
24011;DHT22;12217;50.792;4.372;2023-06-10T08:05:46;26.60;99.90
24011;DHT22;12217;50.792;4.372;2023-06-10T08:08:13;26.70;99.90
24011;DHT22;12217;50.792;4.372;2023-06-10T08:10:38;26.60;99.90
24011;DHT22;12217;50.792;4.372;2023-06-10T08:13:04;26.60;99.90
24011;DHT22;12217;50.792;4.372;2023-06-10T08:15:30;26.80;99.90
24011;DHT22;12217;50.792;4.372;2023-06-10T08:17:55;26.80;99.90
24011;DHT22;12217;50.792;4.372;2023-06-10T08:20:22;26.90;99.90
24011;DHT22;12217;50.792;4.372;2023-06-10T08:22:47;27.00;99.90
24011;DHT22;12217;50.792;4.372;2023-06-10T08:25:13;27.20;99.90
24011;DHT22;12217;50.792;4.372;2023-06-10T08:27:38;27.20;99.90
24011;DHT22;12217;50.792;4.372;2023-06-10T08:30:05;27.30;99.90
24011;DHT22;12217;50.792;4.372;2023-06-10T08:32:30;27.20;99.90
24011;DHT22;12217;50.792;4.372;2023-06-10T08:34:56;27.40;99.90
24011;DHT22;12217;50.792;4.372;2023-06-10T08:37:21;27.50;99.90
24011;DHT22;12217;50.792;4.372;2023-06-10T08:39:48;27.60;99.90
24011;DHT22;12217;50.792;4.372;2023-06-10T08:42:24;27.70;99.90
24011;DHT22;12217;50.792;4.372;2023-06-10T08:44:56;27.80;99.90
24011;DHT22;12217;50.792;4.372;2023-06-10T08:47:25;27.80;99.90
24011;DHT22;12217;50.792;4.372;2023-06-10T08:49:55;27.80;99.90
24011;DHT22;12217;50.792;4.372;2023-06-10T08:52:22;27.90;99.90
24011;DHT22;12217;50.792;4.372;2023-06-10T08:55:03;28.00;99.90
24011;DHT22;12217;50.792;4.372;2023-06-10T09:00:00;28.40;99.80
24011;DHT22;12217;50.792;4.372;2023-06-10T09:02:27;28.50;99.70
24011;DHT22;12217;50.792;4.372;2023-06-10T09:04:53;28.60;99.90
24011;DHT22;12217;50.792;4.372;2023-06-10T09:07:19;28.60;98.80
24011;DHT22;12217;50.792;4.372;2023-06-10T09:09:45;28.70;97.40
24011;DHT22;12217;50.792;4.372;2023-06-10T09:12:14;28.70;98.50
24011;DHT22;12217;50.792;4.372;2023-06-10T09:14:41;28.90;96.70
24011;DHT22;12217;50.792;4.372;2023-06-10T09:17:07;28.90;97.00
24011;DHT22;12217;50.792;4.372;2023-06-10T09:19:33;28.90;96.70
24011;DHT22;12217;50.792;4.372;2023-06-10T09:21:59;28.90;96.90
24011;DHT22;12217;50.792;4.372;2023-06-10T09:24:25;29.00;97.70
24011;DHT22;12217;50.792;4.372;2023-06-10T09:27:01;29.00;98.00
24011;DHT22;12217;50.792;4.372;2023-06-10T09:29:27;29.10;98.80
24011;DHT22;12217;50.792;4.372;2023-06-10T09:31:52;29.10;98.00
24011;DHT22;12217;50.792;4.372;2023-06-10T09:34:18;29.30;98.10
24011;DHT22;12217;50.792;4.372;2023-06-10T09:36:44;29.50;98.30
24011;DHT22;12217;50.792;4.372;2023-06-10T09:39:18;29.70;97.00
24011;DHT22;12217;50.792;4.372;2023-06-10T09:41:45;29.70;96.40
24011;DHT22;12217;50.792;4.372;2023-06-10T09:44:19;29.90;97.10
24011;DHT22;12217;50.792;4.372;2023-06-10T09:46:46;30.20;95.50
24011;DHT22;12217;50.792;4.372;2023-06-10T09:49:12;30.20;94.40
24011;DHT22;12217;50.792;4.372;2023-06-10T09:51:52;30.30;93.90
24011;DHT22;12217;50.792;4.372;2023-06-10T09:54:20;30.50;93.50
24011;DHT22;12217;50.792;4.372;2023-06-10T09:56:51;30.60;92.50
24011;DHT22;12217;50.792;4.372;2023-06-10T09:59:28;30.60;92.20
24011;DHT22;12217;50.792;4.372;2023-06-10T10:01:55;30.70;91.60
24011;DHT22;12217;50.792;4.372;2023-06-10T10:04:24;30.80;92.20
24011;DHT22;12217;50.792;4.372;2023-06-10T10:06:50;30.90;92.70
24011;DHT22;12217;50.792;4.372;2023-06-10T10:09:16;31.00;90.30
24011;DHT22;12217;50.792;4.372;2023-06-10T10:11:44;31.20;91.00
24011;DHT22;12217;50.792;4.372;2023-06-10T10:14:10;31.30;90.10
24011;DHT22;12217;50.792;4.372;2023-06-10T10:16:37;31.30;87.70
24011;DHT22;12217;50.792;4.372;2023-06-10T10:19:25;31.40;84.80
24011;DHT22;12217;50.792;4.372;2023-06-10T10:22:01;31.40;88.10
24011;DHT22;12217;50.792;4.372;2023-06-10T10:24:34;31.50;87.60
24011;DHT22;12217;50.792;4.372;2023-06-10T10:27:04;31.70;88.70
24011;DHT22;12217;50.792;4.372;2023-06-10T10:29:39;31.80;84.50
24011;DHT22;12217;50.792;4.372;2023-06-10T10:32:07;31.90;78.60
24011;DHT22;12217;50.792;4.372;2023-06-10T10:34:41;31.90;82.40
24011;DHT22;12217;50.792;4.372;2023-06-10T10:37:09;32.00;79.20
24011;DHT22;12217;50.792;4.372;2023-06-10T10:39:36;32.10;78.80
24011;DHT22;12217;50.792;4.372;2023-06-10T10:42:03;32.20;78.70
24011;DHT22;12217;50.792;4.372;2023-06-10T10:44:30;32.30;76.90
24011;DHT22;12217;50.792;4.372;2023-06-10T10:46:56;32.30;80.30
24011;DHT22;12217;50.792;4.372;2023-06-10T10:49:27;32.60;76.90
24011;DHT22;12217;50.792;4.372;2023-06-10T10:52:01;32.70;72.90
24011;DHT22;12217;50.792;4.372;2023-06-10T10:54:34;32.80;71.90
24011;DHT22;12217;50.792;4.372;2023-06-10T11:04:58;33.30;68.90
24011;DHT22;12217;50.792;4.372;2023-06-10T11:07:30;33.20;68.10
24011;DHT22;12217;50.792;4.372;2023-06-10T11:12:42;33.10;69.30
24011;DHT22;12217;50.792;4.372;2023-06-10T11:15:13;33.20;67.40
24011;DHT22;12217;50.792;4.372;2023-06-10T11:18:11;33.40;65.10
24011;DHT22;12217;50.792;4.372;2023-06-10T11:28:41;33.80;65.00
24011;DHT22;12217;50.792;4.372;2023-06-10T11:31:06;33.90;64.80
24011;DHT22;12217;50.792;4.372;2023-06-10T11:33:32;34.00;63.50
24011;DHT22;12217;50.792;4.372;2023-06-10T11:35:58;34.10;59.70
24011;DHT22;12217;50.792;4.372;2023-06-10T11:38:24;34.20;59.30
24011;DHT22;12217;50.792;4.372;2023-06-10T11:40:51;34.40;61.60
24011;DHT22;12217;50.792;4.372;2023-06-10T11:43:20;34.10;61.00
24011;DHT22;12217;50.792;4.372;2023-06-10T11:45:46;34.10;63.40
24011;DHT22;12217;50.792;4.372;2023-06-10T11:48:12;34.30;60.60
24011;DHT22;12217;50.792;4.372;2023-06-10T11:50:39;34.10;60.80
24011;DHT22;12217;50.792;4.372;2023-06-10T11:53:08;34.30;59.80
24011;DHT22;12217;50.792;4.372;2023-06-10T11:55:43;34.30;58.70
24011;DHT22;12217;50.792;4.372;2023-06-10T11:58:20;34.40;56.70
24011;DHT22;12217;50.792;4.372;2023-06-10T12:00:51;34.40;55.60
24011;DHT22;12217;50.792;4.372;2023-06-10T12:03:19;34.60;56.50
24011;DHT22;12217;50.792;4.372;2023-06-10T12:05:57;34.70;55.80
24011;DHT22;12217;50.792;4.372;2023-06-10T12:08:24;34.70;56.30
24011;DHT22;12217;50.792;4.372;2023-06-10T12:10:50;34.60;55.60
24011;DHT22;12217;50.792;4.372;2023-06-10T12:13:15;34.80;57.00
24011;DHT22;12217;50.792;4.372;2023-06-10T12:15:43;34.70;57.60
24011;DHT22;12217;50.792;4.372;2023-06-10T12:18:19;34.90;56.40
24011;DHT22;12217;50.792;4.372;2023-06-10T12:20:45;34.90;55.70
24011;DHT22;12217;50.792;4.372;2023-06-10T12:23:11;34.80;56.50
24011;DHT22;12217;50.792;4.372;2023-06-10T12:25:37;34.60;55.70
24011;DHT22;12217;50.792;4.372;2023-06-10T12:28:04;34.60;56.60
24011;DHT22;12217;50.792;4.372;2023-06-10T12:30:31;34.70;58.30
24011;DHT22;12217;50.792;4.372;2023-06-10T12:32:57;34.60;58.60
24011;DHT22;12217;50.792;4.372;2023-06-10T12:35:24;34.80;58.00
24011;DHT22;12217;50.792;4.372;2023-06-10T12:37:58;34.80;56.70
24011;DHT22;12217;50.792;4.372;2023-06-10T12:40:29;35.20;55.60
24011;DHT22;12217;50.792;4.372;2023-06-10T12:42:55;35.30;57.20
24011;DHT22;12217;50.792;4.372;2023-06-10T12:45:34;35.50;55.50
24011;DHT22;12217;50.792;4.372;2023-06-10T12:48:19;35.70;55.60
24011;DHT22;12217;50.792;4.372;2023-06-10T12:50:51;35.70;56.50
24011;DHT22;12217;50.792;4.372;2023-06-10T12:53:18;35.70;54.20
24011;DHT22;12217;50.792;4.372;2023-06-10T12:55:45;35.40;53.60
24011;DHT22;12217;50.792;4.372;2023-06-10T12:58:11;35.30;53.20
24011;DHT22;12217;50.792;4.372;2023-06-10T13:00:37;35.30;53.20
24011;DHT22;12217;50.792;4.372;2023-06-10T13:03:03;35.00;55.10
24011;DHT22;12217;50.792;4.372;2023-06-10T13:05:31;34.90;53.90
24011;DHT22;12217;50.792;4.372;2023-06-10T13:07:57;34.90;54.30
24011;DHT22;12217;50.792;4.372;2023-06-10T13:10:23;35.10;56.10
24011;DHT22;12217;50.792;4.372;2023-06-10T13:12:50;35.10;55.30
24011;DHT22;12217;50.792;4.372;2023-06-10T13:15:16;34.80;54.60
24011;DHT22;12217;50.792;4.372;2023-06-10T13:17:45;34.60;55.10
24011;DHT22;12217;50.792;4.372;2023-06-10T13:20:14;34.70;54.90
24011;DHT22;12217;50.792;4.372;2023-06-10T13:22:40;34.80;56.60
24011;DHT22;12217;50.792;4.372;2023-06-10T13:25:06;35.10;53.80
24011;DHT22;12217;50.792;4.372;2023-06-10T13:27:33;35.20;55.70
24011;DHT22;12217;50.792;4.372;2023-06-10T13:29:59;35.30;54.80
24011;DHT22;12217;50.792;4.372;2023-06-10T13:32:25;35.60;55.70
24011;DHT22;12217;50.792;4.372;2023-06-10T13:34:51;35.70;54.00
24011;DHT22;12217;50.792;4.372;2023-06-10T13:37:18;35.70;55.50
24011;DHT22;12217;50.792;4.372;2023-06-10T13:39:45;35.80;56.60
24011;DHT22;12217;50.792;4.372;2023-06-10T13:42:14;36.00;53.40
24011;DHT22;12217;50.792;4.372;2023-06-10T13:44:39;36.10;52.70
24011;DHT22;12217;50.792;4.372;2023-06-10T13:47:05;36.00;54.40
24011;DHT22;12217;50.792;4.372;2023-06-10T13:49:32;35.90;52.80
24011;DHT22;12217;50.792;4.372;2023-06-10T13:51:57;35.90;55.60
24011;DHT22;12217;50.792;4.372;2023-06-10T13:54:23;35.90;54.10
24011;DHT22;12217;50.792;4.372;2023-06-10T13:56:49;36.00;52.70
24011;DHT22;12217;50.792;4.372;2023-06-10T13:59:14;36.00;51.10
24011;DHT22;12217;50.792;4.372;2023-06-10T14:01:40;35.90;51.60
24011;DHT22;12217;50.792;4.372;2023-06-10T14:04:06;35.80;51.30
24011;DHT22;12217;50.792;4.372;2023-06-10T14:06:32;35.60;50.40
24011;DHT22;12217;50.792;4.372;2023-06-10T14:08:59;35.60;51.30
24011;DHT22;12217;50.792;4.372;2023-06-10T14:11:25;35.60;51.00
24011;DHT22;12217;50.792;4.372;2023-06-10T14:13:50;35.40;52.10
24011;DHT22;12217;50.792;4.372;2023-06-10T14:16:16;35.40;50.80
24011;DHT22;12217;50.792;4.372;2023-06-10T14:18:41;35.50;51.60
24011;DHT22;12217;50.792;4.372;2023-06-10T14:21:07;35.50;50.30
24011;DHT22;12217;50.792;4.372;2023-06-10T14:23:33;35.60;50.90
24011;DHT22;12217;50.792;4.372;2023-06-10T14:25:59;35.50;51.70
24011;DHT22;12217;50.792;4.372;2023-06-10T14:28:25;35.30;51.30
24011;DHT22;12217;50.792;4.372;2023-06-10T14:30:52;35.20;51.80
24011;DHT22;12217;50.792;4.372;2023-06-10T14:33:18;35.20;53.00
24011;DHT22;12217;50.792;4.372;2023-06-10T14:35:43;35.30;52.50
24011;DHT22;12217;50.792;4.372;2023-06-10T14:38:09;35.20;51.30
24011;DHT22;12217;50.792;4.372;2023-06-10T14:40:35;35.30;50.20
24011;DHT22;12217;50.792;4.372;2023-06-10T14:43:01;35.40;54.40
24011;DHT22;12217;50.792;4.372;2023-06-10T14:45:29;35.50;50.50
24011;DHT22;12217;50.792;4.372;2023-06-10T14:47:55;35.70;49.00
24011;DHT22;12217;50.792;4.372;2023-06-10T14:50:20;35.70;49.40
24011;DHT22;12217;50.792;4.372;2023-06-10T14:52:46;35.70;49.90
24011;DHT22;12217;50.792;4.372;2023-06-10T14:55:12;35.70;49.90
24011;DHT22;12217;50.792;4.372;2023-06-10T14:57:37;35.70;50.00
24011;DHT22;12217;50.792;4.372;2023-06-10T15:00:03;35.50;52.20
24011;DHT22;12217;50.792;4.372;2023-06-10T15:02:29;35.40;51.50
24011;DHT22;12217;50.792;4.372;2023-06-10T15:04:55;35.50;50.00
24011;DHT22;12217;50.792;4.372;2023-06-10T15:07:20;35.30;50.80
24011;DHT22;12217;50.792;4.372;2023-06-10T15:09:46;35.50;51.90
24011;DHT22;12217;50.792;4.372;2023-06-10T15:12:11;35.60;49.50
24011;DHT22;12217;50.792;4.372;2023-06-10T15:14:37;35.50;50.80
24011;DHT22;12217;50.792;4.372;2023-06-10T15:17:03;35.50;51.90
24011;DHT22;12217;50.792;4.372;2023-06-10T15:19:29;35.50;50.50
24011;DHT22;12217;50.792;4.372;2023-06-10T15:21:54;35.40;49.80
24011;DHT22;12217;50.792;4.372;2023-06-10T15:24:20;35.40;49.10
24011;DHT22;12217;50.792;4.372;2023-06-10T15:26:45;35.30;49.90
24011;DHT22;12217;50.792;4.372;2023-06-10T15:29:11;35.10;51.20
24011;DHT22;12217;50.792;4.372;2023-06-10T15:31:37;35.00;52.00
24011;DHT22;12217;50.792;4.372;2023-06-10T15:34:02;34.90;52.20
24011;DHT22;12217;50.792;4.372;2023-06-10T15:36:29;35.00;51.80
24011;DHT22;12217;50.792;4.372;2023-06-10T15:39:02;35.00;50.00
24011;DHT22;12217;50.792;4.372;2023-06-10T15:41:28;34.70;51.40
24011;DHT22;12217;50.792;4.372;2023-06-10T15:43:54;34.60;50.20
24011;DHT22;12217;50.792;4.372;2023-06-10T15:46:19;34.60;52.20
24011;DHT22;12217;50.792;4.372;2023-06-10T15:48:45;34.60;52.30
24011;DHT22;12217;50.792;4.372;2023-06-10T15:51:11;34.50;51.30
24011;DHT22;12217;50.792;4.372;2023-06-10T15:53:36;34.60;50.90